sensor_id;sensor_type;location;lat;lon;timestamp;P1;durP1;ratioP1;P2;durP2;ratioP2
14241;SDS011;7205;50.864;12.766;2023-01-24T00:02:27;16.03;;;9.77;;
14241;SDS011;7205;50.864;12.766;2023-01-24T00:04:54;16.93;;;9.77;;
14241;SDS011;7205;50.864;12.766;2023-01-24T00:07:21;17.23;;;10.23;;
14241;SDS011;7205;50.864;12.766;2023-01-24T00:09:48;16.67;;;9.53;;
14241;SDS011;7205;50.864;12.766;2023-01-24T00:12:15;13.27;;;9.07;;
14241;SDS011;7205;50.864;12.766;2023-01-24T00:14:43;16.37;;;9.30;;
14241;SDS011;7205;50.864;12.766;2023-01-24T00:17:10;16.43;;;9.90;;
14241;SDS011;7205;50.864;12.766;2023-01-24T00:19:38;17.83;;;11.00;;
14241;SDS011;7205;50.864;12.766;2023-01-24T00:22:05;17.97;;;10.73;;
14241;SDS011;7205;50.864;12.766;2023-01-24T00:24:32;15.00;;;9.30;;
14241;SDS011;7205;50.864;12.766;2023-01-24T00:27:00;17.60;;;10.53;;
14241;SDS011;7205;50.864;12.766;2023-01-24T00:29:27;16.47;;;9.80;;
14241;SDS011;7205;50.864;12.766;2023-01-24T00:31:53;15.27;;;8.90;;
14241;SDS011;7205;50.864;12.766;2023-01-24T00:34:20;12.90;;;8.80;;
14241;SDS011;7205;50.864;12.766;2023-01-24T00:36:48;15.33;;;9.90;;
14241;SDS011;7205;50.864;12.766;2023-01-24T00:39:15;15.73;;;9.30;;
14241;SDS011;7205;50.864;12.766;2023-01-24T00:41:42;16.13;;;9.77;;
14241;SDS011;7205;50.864;12.766;2023-01-24T00:44:09;16.80;;;9.97;;
14241;SDS011;7205;50.864;12.766;2023-01-24T00:46:38;17.87;;;10.20;;
14241;SDS011;7205;50.864;12.766;2023-01-24T00:49:05;17.50;;;10.77;;
14241;SDS011;7205;50.864;12.766;2023-01-24T00:51:31;18.40;;;10.83;;
14241;SDS011;7205;50.864;12.766;2023-01-24T00:54:00;18.77;;;10.27;;
14241;SDS011;7205;50.864;12.766;2023-01-24T00:56:26;19.47;;;10.83;;
14241;SDS011;7205;50.864;12.766;2023-01-24T00:58:53;18.43;;;10.27;;
14241;SDS011;7205;50.864;12.766;2023-01-24T01:01:20;17.77;;;10.60;;
14241;SDS011;7205;50.864;12.766;2023-01-24T01:03:47;23.57;;;12.10;;
14241;SDS011;7205;50.864;12.766;2023-01-24T01:06:14;19.40;;;9.83;;
14241;SDS011;7205;50.864;12.766;2023-01-24T01:08:42;19.60;;;11.50;;
14241;SDS011;7205;50.864;12.766;2023-01-24T01:11:10;20.33;;;11.93;;
14241;SDS011;7205;50.864;12.766;2023-01-24T01:13:37;24.50;;;12.37;;
14241;SDS011;7205;50.864;12.766;2023-01-24T01:16:05;23.93;;;12.50;;
14241;SDS011;7205;50.864;12.766;2023-01-24T01:18:33;21.03;;;12.13;;
14241;SDS011;7205;50.864;12.766;2023-01-24T01:21:00;24.90;;;12.70;;
14241;SDS011;7205;50.864;12.766;2023-01-24T01:23:27;23.10;;;12.53;;
14241;SDS011;7205;50.864;12.766;2023-01-24T01:25:57;20.73;;;12.00;;
14241;SDS011;7205;50.864;12.766;2023-01-24T01:28:26;25.20;;;12.77;;
14241;SDS011;7205;50.864;12.766;2023-01-24T01:30:53;23.23;;;12.80;;
14241;SDS011;7205;50.864;12.766;2023-01-24T01:33:20;22.10;;;12.50;;
14241;SDS011;7205;50.864;12.766;2023-01-24T01:35:48;23.80;;;12.53;;
14241;SDS011;7205;50.864;12.766;2023-01-24T01:38:16;23.63;;;12.37;;
14241;SDS011;7205;50.864;12.766;2023-01-24T01:40:43;24.43;;;12.67;;
14241;SDS011;7205;50.864;12.766;2023-01-24T01:43:12;20.83;;;11.93;;
14241;SDS011;7205;50.864;12.766;2023-01-24T01:45:42;21.80;;;11.47;;
14241;SDS011;7205;50.864;12.766;2023-01-24T01:48:18;24.80;;;12.50;;
14241;SDS011;7205;50.864;12.766;2023-01-24T01:50:53;24.73;;;12.13;;
14241;SDS011;7205;50.864;12.766;2023-01-24T01:53:25;25.10;;;12.47;;
14241;SDS011;7205;50.864;12.766;2023-01-24T01:55:55;24.40;;;11.90;;
14241;SDS011;7205;50.864;12.766;2023-01-24T01:58:26;21.77;;;12.17;;
14241;SDS011;7205;50.864;12.766;2023-01-24T02:00:55;20.93;;;12.23;;
14241;SDS011;7205;50.864;12.766;2023-01-24T02:03:25;29.13;;;13.47;;
14241;SDS011;7205;50.864;12.766;2023-01-24T02:06:05;25.43;;;13.30;;
14241;SDS011;7205;50.864;12.766;2023-01-24T02:08:37;27.87;;;13.57;;
14241;SDS011;7205;50.864;12.766;2023-01-24T02:11:04;24.07;;;12.47;;
14241;SDS011;7205;50.864;12.766;2023-01-24T02:13:50;26.13;;;13.50;;
14241;SDS011;7205;50.864;12.766;2023-01-24T02:16:38;27.03;;;12.87;;
14241;SDS011;7205;50.864;12.766;2023-01-24T02:19:04;25.40;;;13.40;;
14241;SDS011;7205;50.864;12.766;2023-01-24T02:21:34;25.60;;;12.73;;
14241;SDS011;7205;50.864;12.766;2023-01-24T02:24:02;25.57;;;12.87;;
14241;SDS011;7205;50.864;12.766;2023-01-24T02:26:37;26.50;;;13.60;;
14241;SDS011;7205;50.864;12.766;2023-01-24T02:29:06;26.97;;;13.70;;
14241;SDS011;7205;50.864;12.766;2023-01-24T02:34:23;23.40;;;12.37;;
14241;SDS011;7205;50.864;12.766;2023-01-24T02:36:57;26.63;;;12.70;;
14241;SDS011;7205;50.864;12.766;2023-01-24T02:39:31;24.47;;;13.23;;
14241;SDS011;7205;50.864;12.766;2023-01-24T02:42:04;31.97;;;14.57;;
14241;SDS011;7205;50.864;12.766;2023-01-24T02:44:37;31.23;;;14.70;;
14241;SDS011;7205;50.864;12.766;2023-01-24T02:47:09;32.60;;;14.40;;
14241;SDS011;7205;50.864;12.766;2023-01-24T02:49:36;28.87;;;13.43;;
14241;SDS011;7205;50.864;12.766;2023-01-24T02:52:03;24.23;;;13.27;;
14241;SDS011;7205;50.864;12.766;2023-01-24T02:54:48;28.53;;;13.67;;
14241;SDS011;7205;50.864;12.766;2023-01-24T02:57:16;28.90;;;13.63;;
14241;SDS011;7205;50.864;12.766;2023-01-24T03:00:04;24.60;;;12.27;;
14241;SDS011;7205;50.864;12.766;2023-01-24T03:02:33;24.03;;;13.23;;
14241;SDS011;7205;50.864;12.766;2023-01-24T03:05:00;23.53;;;12.77;;
14241;SDS011;7205;50.864;12.766;2023-01-24T03:07:27;25.87;;;12.60;;
14241;SDS011;7205;50.864;12.766;2023-01-24T03:10:07;23.50;;;12.03;;
14241;SDS011;7205;50.864;12.766;2023-01-24T03:12:37;24.77;;;12.63;;
14241;SDS011;7205;50.864;12.766;2023-01-24T03:15:22;21.87;;;12.23;;
14241;SDS011;7205;50.864;12.766;2023-01-24T03:18:07;21.23;;;12.03;;
14241;SDS011;7205;50.864;12.766;2023-01-24T03:20:52;22.87;;;11.93;;
14241;SDS011;7205;50.864;12.766;2023-01-24T03:23:36;26.97;;;13.07;;
14241;SDS011;7205;50.864;12.766;2023-01-24T03:26:21;29.03;;;13.00;;
14241;SDS011;7205;50.864;12.766;2023-01-24T03:29:08;24.90;;;12.90;;
14241;SDS011;7205;50.864;12.766;2023-01-24T03:31:53;28.67;;;13.50;;
14241;SDS011;7205;50.864;12.766;2023-01-24T03:34:38;30.70;;;13.67;;
14241;SDS011;7205;50.864;12.766;2023-01-24T03:37:17;27.37;;;13.03;;
14241;SDS011;7205;50.864;12.766;2023-01-24T03:40:11;52.83;;;14.87;;
14241;SDS011;7205;50.864;12.766;2023-01-24T03:42:38;34.50;;;14.33;;
14241;SDS011;7205;50.864;12.766;2023-01-24T03:45:15;45.73;;;14.63;;
14241;SDS011;7205;50.864;12.766;2023-01-24T03:47:45;68.53;;;16.13;;
14241;SDS011;7205;50.864;12.766;2023-01-24T03:50:21;106.13;;;16.43;;
14241;SDS011;7205;50.864;12.766;2023-01-24T03:53:07;112.80;;;18.00;;
14241;SDS011;7205;50.864;12.766;2023-01-24T03:55:34;96.83;;;14.67;;
14241;SDS011;7205;50.864;12.766;2023-01-24T03:58:02;115.10;;;17.37;;
14241;SDS011;7205;50.864;12.766;2023-01-24T04:00:31;114.27;;;17.27;;
14241;SDS011;7205;50.864;12.766;2023-01-24T04:03:02;72.63;;;16.90;;
14241;SDS011;7205;50.864;12.766;2023-01-24T04:05:31;60.57;;;16.23;;
14241;SDS011;7205;50.864;12.766;2023-01-24T04:07:59;76.97;;;16.57;;
14241;SDS011;7205;50.864;12.766;2023-01-24T04:10:27;58.37;;;15.90;;
14241;SDS011;7205;50.864;12.766;2023-01-24T04:12:54;119.30;;;17.37;;
14241;SDS011;7205;50.864;12.766;2023-01-24T04:15:23;61.70;;;16.00;;
14241;SDS011;7205;50.864;12.766;2023-01-24T04:18:03;74.13;;;16.77;;
14241;SDS011;7205;50.864;12.766;2023-01-24T04:20:32;128.20;;;17.10;;
14241;SDS011;7205;50.864;12.766;2023-01-24T04:23:02;85.50;;;15.57;;
14241;SDS011;7205;50.864;12.766;2023-01-24T04:25:29;69.07;;;16.00;;
14241;SDS011;7205;50.864;12.766;2023-01-24T04:27:57;60.63;;;15.43;;
14241;SDS011;7205;50.864;12.766;2023-01-24T04:30:27;73.80;;;15.27;;
14241;SDS011;7205;50.864;12.766;2023-01-24T04:32:56;62.33;;;16.07;;
14241;SDS011;7205;50.864;12.766;2023-01-24T04:35:26;69.17;;;16.43;;
14241;SDS011;7205;50.864;12.766;2023-01-24T04:37:59;93.20;;;15.33;;
14241;SDS011;7205;50.864;12.766;2023-01-24T04:40:41;74.97;;;16.13;;
14241;SDS011;7205;50.864;12.766;2023-01-24T04:43:08;86.20;;;16.20;;
14241;SDS011;7205;50.864;12.766;2023-01-24T04:45:37;118.13;;;17.57;;
14241;SDS011;7205;50.864;12.766;2023-01-24T04:48:07;114.10;;;18.67;;
14241;SDS011;7205;50.864;12.766;2023-01-24T04:50:35;89.13;;;17.50;;
14241;SDS011;7205;50.864;12.766;2023-01-24T04:53:02;110.43;;;16.87;;
14241;SDS011;7205;50.864;12.766;2023-01-24T04:55:28;119.67;;;18.23;;
14241;SDS011;7205;50.864;12.766;2023-01-24T04:57:56;116.33;;;17.30;;
14241;SDS011;7205;50.864;12.766;2023-01-24T05:00:24;50.20;;;14.33;;
14241;SDS011;7205;50.864;12.766;2023-01-24T05:02:55;80.33;;;15.37;;
14241;SDS011;7205;50.864;12.766;2023-01-24T05:05:23;69.13;;;15.33;;
14241;SDS011;7205;50.864;12.766;2023-01-24T05:07:51;104.37;;;17.03;;
14241;SDS011;7205;50.864;12.766;2023-01-24T05:10:19;74.27;;;16.50;;
14241;SDS011;7205;50.864;12.766;2023-01-24T05:12:48;63.77;;;15.90;;
14241;SDS011;7205;50.864;12.766;2023-01-24T05:15:20;75.70;;;16.10;;
14241;SDS011;7205;50.864;12.766;2023-01-24T05:17:49;80.67;;;16.90;;
14241;SDS011;7205;50.864;12.766;2023-01-24T05:20:18;56.43;;;13.20;;
14241;SDS011;7205;50.864;12.766;2023-01-24T05:22:45;48.77;;;12.93;;
14241;SDS011;7205;50.864;12.766;2023-01-24T05:25:16;46.90;;;14.97;;
14241;SDS011;7205;50.864;12.766;2023-01-24T05:27:44;58.20;;;15.63;;
14241;SDS011;7205;50.864;12.766;2023-01-24T05:30:12;77.57;;;16.93;;
14241;SDS011;7205;50.864;12.766;2023-01-24T05:32:39;70.37;;;16.07;;
14241;SDS011;7205;50.864;12.766;2023-01-24T05:35:07;67.13;;;16.90;;
14241;SDS011;7205;50.864;12.766;2023-01-24T05:37:35;87.53;;;16.90;;
14241;SDS011;7205;50.864;12.766;2023-01-24T05:40:03;77.97;;;17.90;;
14241;SDS011;7205;50.864;12.766;2023-01-24T05:42:32;66.73;;;16.07;;
14241;SDS011;7205;50.864;12.766;2023-01-24T05:44:59;62.70;;;15.90;;
14241;SDS011;7205;50.864;12.766;2023-01-24T05:47:27;36.17;;;13.73;;
14241;SDS011;7205;50.864;12.766;2023-01-24T05:49:53;41.90;;;15.30;;
14241;SDS011;7205;50.864;12.766;2023-01-24T05:52:21;46.53;;;14.03;;
14241;SDS011;7205;50.864;12.766;2023-01-24T05:54:52;45.47;;;12.70;;
14241;SDS011;7205;50.864;12.766;2023-01-24T05:57:28;38.90;;;14.63;;
14241;SDS011;7205;50.864;12.766;2023-01-24T06:00:23;33.97;;;13.70;;
14241;SDS011;7205;50.864;12.766;2023-01-24T06:03:19;52.50;;;15.53;;
14241;SDS011;7205;50.864;12.766;2023-01-24T06:05:46;46.57;;;15.87;;
14241;SDS011;7205;50.864;12.766;2023-01-24T06:08:14;44.07;;;14.27;;
14241;SDS011;7205;50.864;12.766;2023-01-24T06:10:42;71.13;;;16.07;;
14241;SDS011;7205;50.864;12.766;2023-01-24T06:13:10;81.83;;;16.80;;
14241;SDS011;7205;50.864;12.766;2023-01-24T06:15:39;69.93;;;15.53;;
14241;SDS011;7205;50.864;12.766;2023-01-24T06:18:11;85.63;;;16.40;;
14241;SDS011;7205;50.864;12.766;2023-01-24T06:20:42;64.27;;;15.93;;
14241;SDS011;7205;50.864;12.766;2023-01-24T06:23:10;75.03;;;16.13;;
14241;SDS011;7205;50.864;12.766;2023-01-24T06:25:54;86.03;;;15.63;;
14241;SDS011;7205;50.864;12.766;2023-01-24T06:28:21;64.60;;;14.93;;
14241;SDS011;7205;50.864;12.766;2023-01-24T06:30:52;118.53;;;19.87;;
14241;SDS011;7205;50.864;12.766;2023-01-24T06:33:31;72.03;;;15.17;;
14241;SDS011;7205;50.864;12.766;2023-01-24T06:36:11;81.27;;;15.57;;
14241;SDS011;7205;50.864;12.766;2023-01-24T06:38:49;70.73;;;14.80;;
14241;SDS011;7205;50.864;12.766;2023-01-24T06:41:16;50.33;;;14.30;;
14241;SDS011;7205;50.864;12.766;2023-01-24T06:43:44;81.77;;;16.10;;
14241;SDS011;7205;50.864;12.766;2023-01-24T06:46:32;51.17;;;14.93;;
14241;SDS011;7205;50.864;12.766;2023-01-24T06:48:59;62.27;;;16.07;;
14241;SDS011;7205;50.864;12.766;2023-01-24T06:51:26;65.73;;;15.67;;
14241;SDS011;7205;50.864;12.766;2023-01-24T06:53:52;56.53;;;15.50;;
14241;SDS011;7205;50.864;12.766;2023-01-24T06:56:19;40.60;;;13.87;;
14241;SDS011;7205;50.864;12.766;2023-01-24T06:58:46;39.40;;;14.40;;
14241;SDS011;7205;50.864;12.766;2023-01-24T07:01:13;31.70;;;13.70;;
14241;SDS011;7205;50.864;12.766;2023-01-24T07:03:41;40.23;;;14.53;;
14241;SDS011;7205;50.864;12.766;2023-01-24T07:06:08;27.13;;;13.70;;
14241;SDS011;7205;50.864;12.766;2023-01-24T07:08:35;29.47;;;13.53;;
14241;SDS011;7205;50.864;12.766;2023-01-24T07:11:02;47.00;;;14.60;;
14241;SDS011;7205;50.864;12.766;2023-01-24T07:13:29;28.77;;;13.33;;
14241;SDS011;7205;50.864;12.766;2023-01-24T07:15:59;34.13;;;12.80;;
14241;SDS011;7205;50.864;12.766;2023-01-24T07:18:26;27.03;;;13.17;;
14241;SDS011;7205;50.864;12.766;2023-01-24T07:20:55;29.97;;;13.47;;
14241;SDS011;7205;50.864;12.766;2023-01-24T07:23:23;35.37;;;13.60;;
14241;SDS011;7205;50.864;12.766;2023-01-24T07:25:53;42.50;;;15.17;;
14241;SDS011;7205;50.864;12.766;2023-01-24T07:28:21;32.10;;;13.53;;
14241;SDS011;7205;50.864;12.766;2023-01-24T07:30:48;28.90;;;12.50;;
14241;SDS011;7205;50.864;12.766;2023-01-24T07:33:15;31.77;;;12.57;;
14241;SDS011;7205;50.864;12.766;2023-01-24T07:35:42;31.17;;;13.00;;
14241;SDS011;7205;50.864;12.766;2023-01-24T07:38:10;26.33;;;12.13;;
14241;SDS011;7205;50.864;12.766;2023-01-24T07:40:38;32.83;;;12.70;;
14241;SDS011;7205;50.864;12.766;2023-01-24T07:43:05;31.27;;;13.30;;
14241;SDS011;7205;50.864;12.766;2023-01-24T07:45:32;23.27;;;12.90;;
14241;SDS011;7205;50.864;12.766;2023-01-24T07:48:01;25.73;;;12.40;;
14241;SDS011;7205;50.864;12.766;2023-01-24T07:50:28;32.90;;;12.57;;
14241;SDS011;7205;50.864;12.766;2023-01-24T07:52:56;28.40;;;12.90;;
14241;SDS011;7205;50.864;12.766;2023-01-24T07:55:25;24.43;;;12.80;;
14241;SDS011;7205;50.864;12.766;2023-01-24T07:57:56;24.70;;;12.27;;
14241;SDS011;7205;50.864;12.766;2023-01-24T08:00:24;31.57;;;13.43;;
14241;SDS011;7205;50.864;12.766;2023-01-24T08:02:51;24.63;;;13.23;;
14241;SDS011;7205;50.864;12.766;2023-01-24T08:05:18;22.00;;;11.63;;
14241;SDS011;7205;50.864;12.766;2023-01-24T08:07:45;25.90;;;12.93;;
14241;SDS011;7205;50.864;12.766;2023-01-24T08:10:12;19.77;;;10.80;;
14241;SDS011;7205;50.864;12.766;2023-01-24T08:12:42;22.07;;;11.70;;
14241;SDS011;7205;50.864;12.766;2023-01-24T08:15:09;20.47;;;11.27;;
14241;SDS011;7205;50.864;12.766;2023-01-24T08:17:37;18.33;;;11.53;;
14241;SDS011;7205;50.864;12.766;2023-01-24T08:20:05;19.43;;;10.97;;
14241;SDS011;7205;50.864;12.766;2023-01-24T08:22:33;19.83;;;10.40;;
14241;SDS011;7205;50.864;12.766;2023-01-24T08:25:00;18.83;;;10.90;;
14241;SDS011;7205;50.864;12.766;2023-01-24T08:27:27;16.57;;;10.27;;
14241;SDS011;7205;50.864;12.766;2023-01-24T08:29:55;19.70;;;11.30;;
14241;SDS011;7205;50.864;12.766;2023-01-24T08:32:22;20.47;;;11.57;;
14241;SDS011;7205;50.864;12.766;2023-01-24T08:34:49;21.30;;;11.20;;
14241;SDS011;7205;50.864;12.766;2023-01-24T08:37:16;21.20;;;11.63;;
14241;SDS011;7205;50.864;12.766;2023-01-24T08:39:43;22.00;;;11.13;;
14241;SDS011;7205;50.864;12.766;2023-01-24T08:42:11;18.60;;;11.13;;
14241;SDS011;7205;50.864;12.766;2023-01-24T08:44:38;22.63;;;11.90;;
14241;SDS011;7205;50.864;12.766;2023-01-24T08:47:06;22.40;;;11.67;;
14241;SDS011;7205;50.864;12.766;2023-01-24T08:49:33;22.30;;;11.87;;
14241;SDS011;7205;50.864;12.766;2023-01-24T08:52:00;17.30;;;10.53;;
14241;SDS011;7205;50.864;12.766;2023-01-24T08:54:28;19.10;;;11.23;;
14241;SDS011;7205;50.864;12.766;2023-01-24T08:56:57;19.00;;;11.03;;
14241;SDS011;7205;50.864;12.766;2023-01-24T08:59:24;19.57;;;11.33;;
14241;SDS011;7205;50.864;12.766;2023-01-24T09:01:51;20.33;;;11.27;;
14241;SDS011;7205;50.864;12.766;2023-01-24T09:04:20;17.80;;;10.03;;
14241;SDS011;7205;50.864;12.766;2023-01-24T09:06:47;18.47;;;11.20;;
14241;SDS011;7205;50.864;12.766;2023-01-24T09:09:14;24.73;;;11.57;;
14241;SDS011;7205;50.864;12.766;2023-01-24T09:11:41;18.57;;;10.90;;
14241;SDS011;7205;50.864;12.766;2023-01-24T09:14:08;23.47;;;10.77;;
14241;SDS011;7205;50.864;12.766;2023-01-24T09:16:35;22.03;;;11.53;;
14241;SDS011;7205;50.864;12.766;2023-01-24T09:19:02;29.30;;;11.50;;
14241;SDS011;7205;50.864;12.766;2023-01-24T09:21:30;24.67;;;11.00;;
14241;SDS011;7205;50.864;12.766;2023-01-24T09:23:57;23.63;;;12.20;;
14241;SDS011;7205;50.864;12.766;2023-01-24T09:26:24;21.27;;;10.80;;
14241;SDS011;7205;50.864;12.766;2023-01-24T09:28:51;20.70;;;11.53;;
14241;SDS011;7205;50.864;12.766;2023-01-24T09:31:18;23.07;;;11.13;;
14241;SDS011;7205;50.864;12.766;2023-01-24T09:33:45;28.27;;;11.33;;
14241;SDS011;7205;50.864;12.766;2023-01-24T09:36:11;17.83;;;10.53;;
14241;SDS011;7205;50.864;12.766;2023-01-24T09:38:40;19.03;;;11.20;;
14241;SDS011;7205;50.864;12.766;2023-01-24T09:41:09;17.47;;;11.00;;
14241;SDS011;7205;50.864;12.766;2023-01-24T09:43:45;21.43;;;11.83;;
14241;SDS011;7205;50.864;12.766;2023-01-24T09:46:17;21.77;;;11.10;;
14241;SDS011;7205;50.864;12.766;2023-01-24T09:48:49;19.47;;;10.67;;
14241;SDS011;7205;50.864;12.766;2023-01-24T09:51:25;17.57;;;10.70;;
14241;SDS011;7205;50.864;12.766;2023-01-24T09:53:57;18.23;;;10.33;;
14241;SDS011;7205;50.864;12.766;2023-01-24T09:56:28;19.97;;;11.33;;
14241;SDS011;7205;50.864;12.766;2023-01-24T09:59:04;18.07;;;11.27;;
14241;SDS011;7205;50.864;12.766;2023-01-24T10:01:38;22.53;;;12.10;;
14241;SDS011;7205;50.864;12.766;2023-01-24T10:04:10;19.17;;;11.83;;
14241;SDS011;7205;50.864;12.766;2023-01-24T10:06:41;17.87;;;11.60;;
14241;SDS011;7205;50.864;12.766;2023-01-24T10:09:29;19.13;;;12.07;;
14241;SDS011;7205;50.864;12.766;2023-01-24T10:12:08;20.80;;;12.17;;
14241;SDS011;7205;50.864;12.766;2023-01-24T10:14:49;32.50;;;12.73;;
14241;SDS011;7205;50.864;12.766;2023-01-24T10:17:34;21.37;;;12.23;;
14241;SDS011;7205;50.864;12.766;2023-01-24T10:23:04;48.23;;;13.13;;
14241;SDS011;7205;50.864;12.766;2023-01-24T10:25:40;51.87;;;12.30;;
14241;SDS011;7205;50.864;12.766;2023-01-24T10:28:26;30.93;;;13.80;;
14241;SDS011;7205;50.864;12.766;2023-01-24T10:30:59;41.03;;;12.30;;
14241;SDS011;7205;50.864;12.766;2023-01-24T10:33:32;37.03;;;12.63;;
14241;SDS011;7205;50.864;12.766;2023-01-24T10:36:04;21.87;;;13.77;;
14241;SDS011;7205;50.864;12.766;2023-01-24T10:38:37;62.23;;;13.57;;
14241;SDS011;7205;50.864;12.766;2023-01-24T10:41:13;54.60;;;13.43;;
14241;SDS011;7205;50.864;12.766;2023-01-24T10:43:42;37.43;;;12.80;;
14241;SDS011;7205;50.864;12.766;2023-01-24T10:46:15;23.77;;;12.73;;
14241;SDS011;7205;50.864;12.766;2023-01-24T10:48:54;34.43;;;12.70;;
14241;SDS011;7205;50.864;12.766;2023-01-24T10:51:23;56.10;;;13.07;;
14241;SDS011;7205;50.864;12.766;2023-01-24T10:53:51;25.90;;;11.97;;
14241;SDS011;7205;50.864;12.766;2023-01-24T10:56:28;29.83;;;12.60;;
14241;SDS011;7205;50.864;12.766;2023-01-24T10:58:55;27.33;;;11.80;;
14241;SDS011;7205;50.864;12.766;2023-01-24T11:01:33;35.10;;;12.03;;
14241;SDS011;7205;50.864;12.766;2023-01-24T11:04:12;21.87;;;10.93;;
14241;SDS011;7205;50.864;12.766;2023-01-24T11:06:42;22.03;;;11.17;;
14241;SDS011;7205;50.864;12.766;2023-01-24T11:09:13;24.90;;;11.43;;
14241;SDS011;7205;50.864;12.766;2023-01-24T11:11:43;29.13;;;12.37;;
14241;SDS011;7205;50.864;12.766;2023-01-24T11:14:14;21.23;;;11.90;;
14241;SDS011;7205;50.864;12.766;2023-01-24T11:16:44;18.93;;;12.10;;
14241;SDS011;7205;50.864;12.766;2023-01-24T11:22:02;31.03;;;12.73;;
14241;SDS011;7205;50.864;12.766;2023-01-24T11:24:45;21.13;;;10.10;;
14241;SDS011;7205;50.864;12.766;2023-01-24T11:27:14;21.97;;;11.13;;
14241;SDS011;7205;50.864;12.766;2023-01-24T11:29:44;19.80;;;11.47;;
14241;SDS011;7205;50.864;12.766;2023-01-24T11:32:21;23.27;;;12.60;;
14241;SDS011;7205;50.864;12.766;2023-01-24T11:34:57;31.53;;;12.83;;
14241;SDS011;7205;50.864;12.766;2023-01-24T11:37:42;19.93;;;11.00;;
14241;SDS011;7205;50.864;12.766;2023-01-24T11:40:28;19.20;;;11.90;;
14241;SDS011;7205;50.864;12.766;2023-01-24T11:46:18;32.13;;;13.23;;
14241;SDS011;7205;50.864;12.766;2023-01-24T11:48:53;23.97;;;11.13;;
14241;SDS011;7205;50.864;12.766;2023-01-24T11:51:26;76.10;;;14.67;;
14241;SDS011;7205;50.864;12.766;2023-01-24T11:56:53;32.73;;;12.90;;
14241;SDS011;7205;50.864;12.766;2023-01-24T11:59:29;66.37;;;13.07;;
14241;SDS011;7205;50.864;12.766;2023-01-24T12:02:10;27.13;;;12.53;;
14241;SDS011;7205;50.864;12.766;2023-01-24T12:04:51;28.70;;;12.63;;
14241;SDS011;7205;50.864;12.766;2023-01-24T12:07:31;31.53;;;12.57;;
14241;SDS011;7205;50.864;12.766;2023-01-24T12:10:14;43.67;;;15.43;;
14241;SDS011;7205;50.864;12.766;2023-01-24T12:12:49;50.20;;;13.80;;
14241;SDS011;7205;50.864;12.766;2023-01-24T12:15:23;29.03;;;13.87;;
14241;SDS011;7205;50.864;12.766;2023-01-24T12:18:08;25.27;;;11.90;;
14241;SDS011;7205;50.864;12.766;2023-01-24T12:23:37;30.50;;;12.50;;
14241;SDS011;7205;50.864;12.766;2023-01-24T12:26:11;29.30;;;12.63;;
14241;SDS011;7205;50.864;12.766;2023-01-24T12:28:43;24.40;;;11.23;;
14241;SDS011;7205;50.864;12.766;2023-01-24T12:31:18;19.43;;;11.97;;
14241;SDS011;7205;50.864;12.766;2023-01-24T12:33:56;21.50;;;11.10;;
14241;SDS011;7205;50.864;12.766;2023-01-24T12:36:35;23.83;;;12.23;;
14241;SDS011;7205;50.864;12.766;2023-01-24T12:39:11;20.97;;;12.10;;
14241;SDS011;7205;50.864;12.766;2023-01-24T12:41:41;18.67;;;10.67;;
14241;SDS011;7205;50.864;12.766;2023-01-24T12:44:22;20.10;;;10.60;;
14241;SDS011;7205;50.864;12.766;2023-01-24T12:47:00;14.87;;;9.83;;
14241;SDS011;7205;50.864;12.766;2023-01-24T12:49:36;14.47;;;9.30;;
14241;SDS011;7205;50.864;12.766;2023-01-24T12:52:14;15.10;;;9.80;;
14241;SDS011;7205;50.864;12.766;2023-01-24T12:54:48;18.23;;;10.67;;
14241;SDS011;7205;50.864;12.766;2023-01-24T12:57:22;20.17;;;11.10;;
14241;SDS011;7205;50.864;12.766;2023-01-24T12:59:53;19.30;;;11.50;;
14241;SDS011;7205;50.864;12.766;2023-01-24T13:05:26;19.30;;;11.23;;
14241;SDS011;7205;50.864;12.766;2023-01-24T13:08:08;20.07;;;11.63;;
14241;SDS011;7205;50.864;12.766;2023-01-24T13:10:50;20.47;;;11.53;;
14241;SDS011;7205;50.864;12.766;2023-01-24T13:13:29;19.73;;;11.83;;
14241;SDS011;7205;50.864;12.766;2023-01-24T13:16:03;18.53;;;10.77;;
14241;SDS011;7205;50.864;12.766;2023-01-24T13:18:53;18.07;;;10.70;;
14241;SDS011;7205;50.864;12.766;2023-01-24T13:21:29;15.37;;;10.33;;
14241;SDS011;7205;50.864;12.766;2023-01-24T13:24:10;18.23;;;9.83;;
14241;SDS011;7205;50.864;12.766;2023-01-24T13:27:08;18.73;;;10.53;;
14241;SDS011;7205;50.864;12.766;2023-01-24T13:32:42;15.33;;;9.00;;
14241;SDS011;7205;50.864;12.766;2023-01-24T13:35:14;15.60;;;9.17;;
14241;SDS011;7205;50.864;12.766;2023-01-24T13:37:49;16.90;;;9.80;;
14241;SDS011;7205;50.864;12.766;2023-01-24T13:40:20;15.40;;;9.10;;
14241;SDS011;7205;50.864;12.766;2023-01-24T13:42:49;18.67;;;9.90;;
14241;SDS011;7205;50.864;12.766;2023-01-24T13:51:33;15.70;;;9.20;;
14241;SDS011;7205;50.864;12.766;2023-01-24T13:54:15;14.13;;;9.43;;
14241;SDS011;7205;50.864;12.766;2023-01-24T14:02:43;12.03;;;8.60;;
14241;SDS011;7205;50.864;12.766;2023-01-24T14:05:37;13.23;;;8.67;;
14241;SDS011;7205;50.864;12.766;2023-01-24T14:11:15;17.83;;;10.13;;
14241;SDS011;7205;50.864;12.766;2023-01-24T14:13:52;14.43;;;9.73;;
14241;SDS011;7205;50.864;12.766;2023-01-24T14:19:23;19.33;;;10.23;;
14241;SDS011;7205;50.864;12.766;2023-01-24T14:21:55;17.17;;;9.67;;
14241;SDS011;7205;50.864;12.766;2023-01-24T14:24:26;14.50;;;9.47;;
14241;SDS011;7205;50.864;12.766;2023-01-24T14:26:57;15.37;;;9.03;;
14241;SDS011;7205;50.864;12.766;2023-01-24T14:29:28;16.67;;;9.90;;
14241;SDS011;7205;50.864;12.766;2023-01-24T14:32:02;18.37;;;10.43;;
14241;SDS011;7205;50.864;12.766;2023-01-24T14:34:34;16.93;;;9.80;;
14241;SDS011;7205;50.864;12.766;2023-01-24T14:37:08;16.13;;;9.80;;
14241;SDS011;7205;50.864;12.766;2023-01-24T14:39:36;14.60;;;9.27;;
14241;SDS011;7205;50.864;12.766;2023-01-24T14:42:05;16.47;;;9.90;;
14241;SDS011;7205;50.864;12.766;2023-01-24T14:44:38;13.73;;;8.67;;
14241;SDS011;7205;50.864;12.766;2023-01-24T14:47:16;15.73;;;9.13;;
14241;SDS011;7205;50.864;12.766;2023-01-24T14:49:46;17.33;;;9.73;;
14241;SDS011;7205;50.864;12.766;2023-01-24T14:52:17;13.47;;;8.87;;
14241;SDS011;7205;50.864;12.766;2023-01-24T14:54:46;15.57;;;9.57;;
14241;SDS011;7205;50.864;12.766;2023-01-24T14:57:22;16.13;;;9.20;;
14241;SDS011;7205;50.864;12.766;2023-01-24T15:00:00;20.23;;;9.73;;
14241;SDS011;7205;50.864;12.766;2023-01-24T15:02:29;19.37;;;9.30;;
14241;SDS011;7205;50.864;12.766;2023-01-24T15:04:56;15.87;;;10.13;;
14241;SDS011;7205;50.864;12.766;2023-01-24T15:07:23;17.97;;;9.97;;
14241;SDS011;7205;50.864;12.766;2023-01-24T15:09:50;16.77;;;9.70;;
14241;SDS011;7205;50.864;12.766;2023-01-24T15:12:21;15.67;;;8.17;;
14241;SDS011;7205;50.864;12.766;2023-01-24T15:14:52;16.83;;;9.50;;
14241;SDS011;7205;50.864;12.766;2023-01-24T15:17:21;18.47;;;10.37;;
14241;SDS011;7205;50.864;12.766;2023-01-24T15:19:50;18.13;;;9.97;;
14241;SDS011;7205;50.864;12.766;2023-01-24T15:22:21;17.53;;;10.20;;
14241;SDS011;7205;50.864;12.766;2023-01-24T15:24:51;18.03;;;11.03;;
14241;SDS011;7205;50.864;12.766;2023-01-24T15:27:31;18.23;;;10.87;;
14241;SDS011;7205;50.864;12.766;2023-01-24T15:30:06;22.03;;;11.23;;
14241;SDS011;7205;50.864;12.766;2023-01-24T15:32:41;23.20;;;11.60;;